Time;durP1;ratioP1;P1;durP2;ratioP2;P2;SDS_P1;SDS_P2;PMS_P1;PMS_P2;Temp;Humidity;BMP_temperature;BMP_pressure;BME280_temperature;BME280_humidity;BME280_pressure;Samples;Min_cycle;Max_cycle;Signal;HPM_P1;HPM_P2
2022/01/28 00:01:11;;;;;;;111.23;40.23;;;6.30;94.90;;;;;;5023532;28;20556;-71
2022/01/28 00:03:39;;;;;;;111.60;40.57;;;6.30;95.10;;;;;;5036832;28;20213;-71
2022/01/28 00:06:07;;;;;;;106.87;39.10;;;6.30;94.90;;;;;;5041044;28;20213;-71
2022/01/28 00:08:35;;;;;;;112.00;39.73;;;6.30;94.80;;;;;;5043376;28;20237;-71
2022/01/28 00:11:02;;;;;;;104.97;37.80;;;6.30;94.90;;;;;;5042680;28;20218;-71
2022/01/28 00:13:36;;;;;;;121.47;40.47;;;6.30;94.80;;;;;;5041669;28;20222;-71
2022/01/28 00:40:26;;;;;;;95.57;36.73;;;6.30;94.60;;;;;;5040825;28;20204;-71
2022/01/28 00:42:54;;;;;;;87.77;35.93;;;6.30;94.50;;;;;;5040396;28;20209;-71
2022/01/28 00:45:21;;;;;;;87.93;37.70;;;6.30;94.80;;;;;;5040965;28;20216;-71
2022/01/28 00:47:48;;;;;;;100.53;39.17;;;6.30;94.50;;;;;;5043008;28;20234;-71
2022/01/28 00:50:16;;;;;;;115.93;41.50;;;6.30;94.50;;;;;;5043014;28;20221;-71
2022/01/28 00:52:43;;;;;;;104.17;39.60;;;6.30;94.50;;;;;;5043291;28;20210;-71
2022/01/28 00:55:10;;;;;;;84.83;35.67;;;6.30;94.50;;;;;;5051897;28;20599;-71
2022/01/28 00:57:37;;;;;;;99.37;38.33;;;6.30;94.50;;;;;;5041495;28;20257;-71
2022/01/28 01:00:06;;;;;;;80.53;35.87;;;6.30;94.50;;;;;;5064315;28;20541;-71
2022/01/28 01:02:33;;;;;;;93.10;37.47;;;6.20;94.40;;;;;;5045194;28;20209;-71
2022/01/28 01:05:01;;;;;;;86.83;37.47;;;6.20;94.40;;;;;;5042422;28;20216;-71
2022/01/28 01:07:30;;;;;;;95.23;39.93;;;6.30;94.50;;;;;;5040787;28;20205;-71
2022/01/28 01:09:57;;;;;;;108.07;41.87;;;6.30;94.50;;;;;;5042654;28;20209;-70
2022/01/28 01:12:26;;;;;;;114.53;40.43;;;6.30;94.40;;;;;;5042182;28;20604;-70
2022/01/28 01:14:53;;;;;;;115.70;44.17;;;6.30;94.40;;;;;;5044358;28;20579;-71
2022/01/28 01:19:52;;;;;;;129.50;43.67;;;6.30;94.40;;;;;;5039568;28;20238;-71
2022/01/28 01:22:20;;;;;;;119.47;43.87;;;6.30;94.30;;;;;;5049275;28;20530;-71
2022/01/28 01:24:53;;;;;;;111.40;43.87;;;6.30;94.40;;;;;;5041508;28;20196;-71
2022/01/28 01:27:20;;;;;;;115.33;43.43;;;6.30;94.40;;;;;;5041700;28;20205;-71
2022/01/28 01:29:48;;;;;;;118.10;44.37;;;6.30;94.40;;;;;;5051286;28;20680;-70
2022/01/28 01:32:17;;;;;;;113.83;42.90;;;6.30;94.40;;;;;;5043302;28;20205;-71
2022/01/28 01:34:46;;;;;;;114.47;43.23;;;6.30;94.30;;;;;;5047920;28;20201;-71
2022/01/28 01:37:13;;;;;;;119.47;42.90;;;6.30;94.30;;;;;;5057685;28;20218;-71
2022/01/28 01:39:42;;;;;;;103.10;42.13;;;6.30;94.40;;;;;;5050253;28;20222;-70
2022/01/28 01:42:28;;;;;;;109.43;40.97;;;6.30;94.40;;;;;;5041203;28;20258;-70
2022/01/28 01:53:24;;;;;;;97.10;40.63;;;6.30;94.40;;;;;;5042716;28;20209;-71
2022/01/28 01:55:51;;;;;;;112.60;39.80;;;6.30;94.30;;;;;;5042085;28;20202;-71
2022/01/28 01:58:24;;;;;;;114.50;42.97;;;6.30;94.20;;;;;;5043715;28;20271;-71
2022/01/28 02:00:51;;;;;;;101.63;40.33;;;6.30;94.20;;;;;;5044094;28;20628;-71
2022/01/28 02:03:18;;;;;;;111.67;42.17;;;6.20;94.20;;;;;;5042955;28;20246;-71
2022/01/28 02:05:46;;;;;;;92.70;38.60;;;6.20;94.10;;;;;;5043113;28;20206;-71
2022/01/28 02:08:13;;;;;;;101.40;40.53;;;6.20;94.20;;;;;;5048890;28;20216;-70
2022/01/28 02:10:40;;;;;;;104.50;41.60;;;6.20;94.20;;;;;;5043581;28;20222;-70
2022/01/28 02:13:07;;;;;;;103.97;41.37;;;6.20;94.20;;;;;;5042791;28;20212;-70
2022/01/28 02:15:34;;;;;;;103.53;41.00;;;6.20;94.10;;;;;;5042018;28;20634;-71
2022/01/28 02:18:01;;;;;;;104.27;40.47;;;6.20;94.10;;;;;;5039263;28;20681;-71
2022/01/28 02:20:34;;;;;;;106.33;41.43;;;6.10;94.10;;;;;;5038969;28;20316;-71
2022/01/28 02:23:01;;;;;;;105.10;40.90;;;6.10;94.20;;;;;;5057556;28;20212;-71
2022/01/28 02:25:32;;;;;;;105.03;42.17;;;6.10;94.20;;;;;;5041529;28;20229;-71
2022/01/28 02:28:03;;;;;;;119.93;43.07;;;6.10;94.20;;;;;;5040785;28;20218;-71
2022/01/28 02:30:30;;;;;;;116.57;41.63;;;6.10;94.20;;;;;;5049277;28;20205;-71
2022/01/28 02:33:22;;;;;;;107.27;41.03;;;6.10;94.20;;;;;;5046743;28;20196;-70
2022/01/28 02:35:47;;;;;;;103.13;41.57;;;6.10;94.20;;;;;;5040948;28;20230;-70
2022/01/28 02:38:17;;;;;;;105.37;42.87;;;6.10;94.20;;;;;;5049371;28;20616;-70
2022/01/28 02:40:54;;;;;;;120.07;44.40;;;6.10;94.20;;;;;;5036510;28;20270;-70
2022/01/28 02:45:54;;;;;;;108.30;41.47;;;6.10;94.20;;;;;;5037955;28;20300;-70
2022/01/28 02:48:25;;;;;;;126.37;42.83;;;6.00;94.10;;;;;;5033555;28;20208;-70
2022/01/28 02:53:41;;;;;;;111.07;42.17;;;6.00;94.40;;;;;;5044160;28;20213;-70
2022/01/28 02:56:34;;;;;;;115.30;43.17;;;6.00;94.20;;;;;;5038630;28;20206;-70
2022/01/28 02:59:05;;;;;;;109.77;40.03;;;6.00;94.20;;;;;;5043507;28;20219;-71
2022/01/28 03:01:33;;;;;;;115.40;40.53;;;6.00;94.20;;;;;;5043704;28;20190;-71
2022/01/28 03:04:03;;;;;;;99.17;40.60;;;6.00;94.20;;;;;;5049924;28;20206;-70
2022/01/28 03:06:30;;;;;;;96.63;40.00;;;5.90;94.40;;;;;;5059843;28;20230;-70
2022/01/28 03:09:14;;;;;;;94.67;38.67;;;5.90;94.50;;;;;;5036003;28;20197;-70
2022/01/28 03:17:08;;;;;;;81.93;37.17;;;5.90;94.20;;;;;;5054741;28;20616;-71
2022/01/28 03:19:49;;;;;;;104.10;38.37;;;5.90;94.20;;;;;;5044705;28;20652;-71
2022/01/28 03:22:17;;;;;;;83.47;37.63;;;5.90;94.20;;;;;;5043536;28;20202;-70
2022/01/28 03:24:48;;;;;;;105.13;40.17;;;5.90;94.20;;;;;;5052774;28;20216;-70
2022/01/28 03:27:27;;;;;;;106.60;42.60;;;5.90;94.20;;;;;;5047727;28;20642;-70
2022/01/28 03:29:54;;;;;;;105.73;41.43;;;5.80;94.20;;;;;;5045012;28;20287;-70
2022/01/28 03:32:21;;;;;;;108.57;40.40;;;5.80;94.20;;;;;;5043792;28;20217;-70
2022/01/28 03:34:48;;;;;;;115.00;41.17;;;5.80;94.20;;;;;;5046824;28;20220;-70
2022/01/28 03:37:15;;;;;;;112.67;41.30;;;5.80;94.20;;;;;;5043166;28;20231;-70
2022/01/28 03:39:42;;;;;;;121.37;41.80;;;5.80;94.10;;;;;;5052367;28;20206;-70
2022/01/28 03:42:09;;;;;;;109.63;42.37;;;5.80;94.10;;;;;;5040381;28;20228;-70
2022/01/28 03:44:37;;;;;;;110.37;39.73;;;5.80;94.20;;;;;;5044302;28;20308;-70
2022/01/28 03:47:05;;;;;;;121.83;40.43;;;5.80;94.20;;;;;;5053108;28;20220;-70
2022/01/28 03:49:32;;;;;;;108.93;41.07;;;5.70;94.20;;;;;;5042101;28;20308;-70
2022/01/28 03:51:59;;;;;;;110.20;39.00;;;5.70;94.20;;;;;;5042503;28;20288;-70
2022/01/28 03:54:26;;;;;;;122.13;40.67;;;5.70;94.20;;;;;;5041343;28;20233;-70
2022/01/28 03:56:53;;;;;;;117.27;41.17;;;5.70;94.20;;;;;;5041354;28;20229;-70
2022/01/28 03:59:20;;;;;;;107.07;40.13;;;5.70;94.30;;;;;;5052664;28;20208;-70
2022/01/28 04:01:49;;;;;;;106.93;38.23;;;5.60;94.30;;;;;;5050199;28;20201;-70
2022/01/28 04:12:36;;;;;;;144.03;41.30;;;5.60;94.30;;;;;;5058989;28;20651;-70
2022/01/28 04:17:37;;;;;;;113.63;37.83;;;5.50;94.30;;;;;;5051317;28;20225;-70
2022/01/28 04:20:04;;;;;;;90.73;35.07;;;5.50;94.30;;;;;;5049808;28;20229;-71
2022/01/28 04:22:31;;;;;;;75.27;32.23;;;5.50;94.30;;;;;;5044405;28;20513;-70
2022/01/28 04:24:58;;;;;;;78.93;33.73;;;5.40;94.40;;;;;;5040080;28;20209;-70
2022/01/28 04:27:25;;;;;;;76.80;32.03;;;5.40;94.40;;;;;;5051461;28;20742;-70
2022/01/28 04:29:52;;;;;;;74.33;33.33;;;5.40;94.40;;;;;;5047323;28;20212;-70
2022/01/28 04:32:20;;;;;;;75.23;32.33;;;5.40;94.40;;;;;;5052200;28;20209;-70
2022/01/28 04:34:48;;;;;;;82.27;32.37;;;5.30;94.40;;;;;;5042760;28;20205;-70
2022/01/28 04:37:25;;;;;;;87.47;33.57;;;5.30;94.40;;;;;;5040953;28;20227;-70
2022/01/28 04:39:58;;;;;;;74.00;32.57;;;5.30;94.40;;;;;;5049008;28;20640;-70
2022/01/28 04:42:55;;;;;;;86.10;33.83;;;5.30;94.40;;;;;;5044261;28;20709;-70
2022/01/28 04:48:00;;;;;;;74.70;33.30;;;5.30;94.50;;;;;;5043195;28;20220;-70
2022/01/28 04:53:19;;;;;;;90.23;33.53;;;5.30;94.60;;;;;;5040207;28;20307;-70
2022/01/28 04:58:42;;;;;;;74.60;30.17;;;5.30;94.60;;;;;;5044472;28;20225;-70
2022/01/28 05:27:28;;;;;;;103.63;32.53;;;5.10;94.90;;;;;;5041634;28;20259;-70
2022/01/28 05:29:55;;;;;;;83.33;32.70;;;5.10;94.80;;;;;;5045224;28;20230;-70
2022/01/28 05:32:22;;;;;;;162.53;36.37;;;5.10;94.80;;;;;;5042486;28;20278;-70
2022/01/28 05:34:49;;;;;;;106.03;34.20;;;5.10;94.90;;;;;;5045822;28;20576;-70
2022/01/28 05:37:16;;;;;;;102.80;32.57;;;5.00;94.90;;;;;;5040690;28;20218;-70
2022/01/28 05:39:43;;;;;;;112.63;32.80;;;5.00;95.00;;;;;;5050507;28;20643;-70
2022/01/28 05:42:10;;;;;;;176.87;34.27;;;5.00;95.10;;;;;;5050082;28;20202;-70
2022/01/28 05:44:37;;;;;;;127.77;34.60;;;5.00;95.20;;;;;;5045793;28;20215;-70
2022/01/28 05:47:04;;;;;;;94.53;34.80;;;4.90;95.40;;;;;;5043040;28;20221;-70
2022/01/28 05:49:32;;;;;;;79.97;33.23;;;4.90;95.40;;;;;;5044143;28;20206;-70
2022/01/28 05:51:59;;;;;;;88.00;31.30;;;4.90;95.50;;;;;;5043360;28;20196;-70
2022/01/28 05:54:26;;;;;;;77.63;32.50;;;4.90;95.50;;;;;;5051260;28;20224;-70
2022/01/28 05:56:53;;;;;;;70.70;29.27;;;4.80;95.60;;;;;;5044720;28;20208;-70
2022/01/28 05:59:20;;;;;;;73.97;30.13;;;4.80;95.60;;;;;;5040621;28;20244;-70
2022/01/28 06:01:47;;;;;;;71.23;30.30;;;4.70;95.70;;;;;;5039255;28;20289;-70
2022/01/28 06:04:15;;;;;;;75.93;31.80;;;4.80;95.80;;;;;;5035379;28;20205;-70
2022/01/28 06:06:43;;;;;;;77.93;30.13;;;4.80;95.80;;;;;;5041201;28;20552;-70
2022/01/28 06:09:10;;;;;;;61.90;27.27;;;4.80;95.80;;;;;;5041903;28;20224;-70
2022/01/28 06:11:38;;;;;;;66.43;28.00;;;4.80;95.70;;;;;;5040430;28;20206;-70
2022/01/28 06:14:06;;;;;;;70.77;28.03;;;4.70;95.70;;;;;;5038204;28;20299;-70
2022/01/28 06:16:33;;;;;;;65.47;27.40;;;4.70;95.60;;;;;;5038819;28;20303;-70
2022/01/28 06:19:01;;;;;;;72.07;28.10;;;4.70;95.70;;;;;;5050879;28;20680;-70
2022/01/28 06:21:28;;;;;;;60.50;26.00;;;4.60;95.70;;;;;;5047183;28;20232;-70
2022/01/28 06:23:55;;;;;;;65.67;26.43;;;4.60;95.80;;;;;;5029576;28;20223;-70
2022/01/28 06:26:22;;;;;;;51.00;23.00;;;4.60;95.80;;;;;;5036848;28;20771;-70
2022/01/28 06:28:49;;;;;;;65.37;26.10;;;4.60;95.70;;;;;;5047007;28;20291;-70
2022/01/28 06:31:17;;;;;;;87.87;25.73;;;4.60;95.50;;;;;;5039718;28;20198;-70
2022/01/28 06:33:48;;;;;;;54.23;24.10;;;4.60;95.60;;;;;;5044334;28;20561;-70
2022/01/28 06:36:15;;;;;;;73.87;26.47;;;4.60;95.70;;;;;;5047705;28;20238;-70
2022/01/28 06:38:43;;;;;;;57.50;25.63;;;4.60;95.70;;;;;;5061814;28;20229;-70
2022/01/28 06:41:10;;;;;;;58.43;25.50;;;4.60;95.70;;;;;;5046583;28;20302;-70
2022/01/28 06:43:39;;;;;;;56.70;23.70;;;4.60;95.90;;;;;;5046942;28;20293;-70
2022/01/28 06:46:07;;;;;;;59.33;24.10;;;4.60;95.90;;;;;;5049081;28;20662;-70
2022/01/28 06:48:34;;;;;;;72.90;25.60;;;4.60;95.90;;;;;;5054319;28;20223;-70
2022/01/28 06:51:01;;;;;;;54.97;24.30;;;4.70;95.90;;;;;;5045499;28;20219;-70
2022/01/28 06:53:28;;;;;;;50.67;23.40;;;4.70;95.90;;;;;;5047810;28;20233;-70
2022/01/28 06:55:55;;;;;;;51.13;25.13;;;4.70;95.80;;;;;;5050977;28;20668;-70
2022/01/28 06:58:23;;;;;;;55.27;23.93;;;4.70;95.40;;;;;;5040318;28;20215;-70
2022/01/28 07:00:50;;;;;;;60.23;24.73;;;4.70;95.40;;;;;;5036872;28;20254;-70
2022/01/28 07:03:18;;;;;;;54.40;25.27;;;4.70;95.50;;;;;;5051521;28;20227;-70
2022/01/28 07:05:45;;;;;;;59.57;25.27;;;4.70;95.60;;;;;;5040999;28;20227;-70
2022/01/28 07:08:12;;;;;;;46.43;23.43;;;4.70;95.40;;;;;;5044791;28;20609;-70
2022/01/28 07:10:39;;;;;;;53.87;24.83;;;4.70;95.40;;;;;;5053054;28;20648;-70
2022/01/28 07:13:06;;;;;;;49.37;24.53;;;4.70;95.50;;;;;;5051720;28;20300;-70
2022/01/28 07:15:33;;;;;;;47.90;24.17;;;4.70;95.40;;;;;;5047283;28;20205;-70
2022/01/28 07:18:03;;;;;;;51.07;25.00;;;4.80;95.50;;;;;;5046593;28;20719;-70
2022/01/28 07:20:32;;;;;;;60.37;22.80;;;4.80;95.40;;;;;;5040818;28;20601;-70
2022/01/28 07:22:59;;;;;;;53.73;23.57;;;4.80;95.40;;;;;;5050816;28;20291;-70
2022/01/28 07:25:26;;;;;;;74.17;24.10;;;4.80;95.30;;;;;;5040690;28;20208;-70
2022/01/28 07:27:53;;;;;;;53.40;21.97;;;4.70;95.10;;;;;;5038013;28;20265;-70
2022/01/28 07:30:21;;;;;;;65.47;24.47;;;4.70;95.20;;;;;;5042491;28;20218;-70
2022/01/28 07:32:50;;;;;;;48.87;22.17;;;4.70;95.30;;;;;;5039670;28;20625;-70
2022/01/28 07:35:17;;;;;;;50.60;23.00;;;4.70;95.40;;;;;;5050923;28;20220;-71
2022/01/28 07:37:45;;;;;;;49.73;23.10;;;4.60;95.40;;;;;;5040096;28;20208;-70
2022/01/28 07:40:13;;;;;;;51.20;23.33;;;4.60;95.40;;;;;;5044174;28;20207;-70
2022/01/28 07:42:40;;;;;;;47.57;22.23;;;4.60;95.50;;;;;;5052129;28;20204;-70
2022/01/28 07:45:09;;;;;;;54.47;23.37;;;4.60;95.60;;;;;;5046302;28;20208;-70
2022/01/28 07:47:36;;;;;;;86.30;26.83;;;4.60;95.60;;;;;;5053851;28;20237;-70
2022/01/28 07:50:05;;;;;;;67.53;25.27;;;4.60;95.60;;;;;;5043446;28;20216;-70
2022/01/28 07:52:33;;;;;;;81.37;26.70;;;4.70;95.60;;;;;;5050251;28;20214;-70
2022/01/28 07:55:00;;;;;;;67.93;25.70;;;4.70;95.60;;;;;;5045479;28;20203;-70
2022/01/28 07:57:27;;;;;;;65.93;26.47;;;4.70;95.60;;;;;;5041255;28;20220;-70
2022/01/28 07:59:54;;;;;;;70.43;26.73;;;4.70;95.70;;;;;;5051729;28;20655;-70
2022/01/28 08:02:21;;;;;;;72.77;27.30;;;4.70;96.00;;;;;;5045579;28;20230;-70
2022/01/28 08:04:49;;;;;;;113.97;29.47;;;4.80;95.80;;;;;;5043130;28;20194;-70
2022/01/28 08:07:16;;;;;;;65.27;28.37;;;4.80;95.80;;;;;;5045744;28;20549;-70
2022/01/28 08:09:43;;;;;;;104.60;28.70;;;4.80;95.70;;;;;;5046719;28;20207;-68
2022/01/28 08:12:10;;;;;;;56.70;28.87;;;4.80;95.70;;;;;;5045840;28;20213;-68
2022/01/28 08:14:37;;;;;;;78.27;26.80;;;4.80;95.60;;;;;;5041855;28;20261;-68
2022/01/28 08:17:04;;;;;;;55.93;26.20;;;4.80;95.60;;;;;;5043779;28;20655;-68
2022/01/28 08:19:31;;;;;;;91.33;27.37;;;4.80;95.60;;;;;;5042573;28;20659;-67
2022/01/28 08:21:58;;;;;;;63.90;26.37;;;4.80;95.60;;;;;;5053000;28;20220;-67
2022/01/28 08:24:25;;;;;;;59.33;26.17;;;4.80;95.50;;;;;;5047119;28;20204;-67
2022/01/28 08:26:53;;;;;;;61.83;27.60;;;4.90;95.50;;;;;;5044212;28;20240;-67
2022/01/28 08:29:21;;;;;;;82.17;26.93;;;4.90;95.50;;;;;;5044532;28;20207;-67
2022/01/28 08:31:48;;;;;;;78.17;26.23;;;4.90;95.50;;;;;;5045164;28;20216;-67
2022/01/28 08:34:15;;;;;;;73.50;27.03;;;4.90;95.50;;;;;;5042112;28;20640;-67
2022/01/28 08:36:42;;;;;;;93.90;29.83;;;4.90;95.50;;;;;;5045005;28;20210;-68
2022/01/28 08:39:10;;;;;;;77.00;30.10;;;5.00;95.40;;;;;;5044185;28;20224;-68
2022/01/28 08:41:40;;;;;;;101.07;31.53;;;5.00;95.30;;;;;;5051258;28;20220;-67
2022/01/28 08:44:07;;;;;;;87.80;28.90;;;4.90;95.30;;;;;;5037911;28;20203;-68
2022/01/28 08:46:34;;;;;;;77.17;31.67;;;4.90;95.40;;;;;;5050995;28;20228;-67
2022/01/28 08:49:03;;;;;;;84.03;28.20;;;4.90;95.40;;;;;;5042293;28;20214;-67
2022/01/28 08:51:35;;;;;;;82.30;31.20;;;4.80;95.50;;;;;;5044291;28;20198;-67
2022/01/28 08:54:03;;;;;;;82.83;31.20;;;4.90;95.60;;;;;;5043198;28;20216;-68
2022/01/28 08:56:30;;;;;;;73.03;31.13;;;4.90;95.70;;;;;;5040380;28;20287;-68
2022/01/28 08:58:57;;;;;;;77.07;29.30;;;5.00;95.80;;;;;;5043914;28;20624;-68
2022/01/28 09:01:24;;;;;;;85.87;30.70;;;5.10;96.10;;;;;;5057499;28;20518;-68
2022/01/28 09:03:52;;;;;;;74.73;29.23;;;5.20;95.60;;;;;;5044210;28;20230;-68
2022/01/28 09:06:19;;;;;;;75.20;29.03;;;5.20;95.30;;;;;;5050645;28;20212;-67
2022/01/28 09:08:48;;;;;;;67.63;31.33;;;5.20;95.30;;;;;;5042609;28;20637;-67
2022/01/28 09:13:49;;;;;;;58.97;27.57;;;5.30;95.30;;;;;;5043410;28;20231;-68
2022/01/28 09:16:17;;;;;;;61.87;27.23;;;5.40;95.20;;;;;;5042639;28;20221;-68
2022/01/28 09:18:45;;;;;;;53.07;25.13;;;5.40;95.00;;;;;;5040690;28;20253;-68
2022/01/28 09:21:12;;;;;;;53.73;25.30;;;5.40;95.00;;;;;;5041848;28;20245;-68
2022/01/28 09:23:40;;;;;;;58.50;26.00;;;5.40;95.00;;;;;;5045261;28;20502;-68
2022/01/28 09:26:09;;;;;;;56.63;25.47;;;5.50;95.00;;;;;;5039596;28;20313;-68
2022/01/28 09:28:36;;;;;;;55.67;27.27;;;5.60;94.90;;;;;;5052785;28;20557;-68
2022/01/28 09:31:04;;;;;;;48.80;24.90;;;5.70;94.70;;;;;;5041193;28;20206;-68
2022/01/28 09:33:31;;;;;;;53.73;25.50;;;5.70;94.60;;;;;;5039272;28;20220;-68
2022/01/28 09:35:58;;;;;;;51.87;24.67;;;5.80;94.50;;;;;;5044262;28;20285;-68
2022/01/28 09:38:25;;;;;;;48.90;25.60;;;5.80;94.40;;;;;;5041665;28;20232;-68
2022/01/28 09:40:52;;;;;;;50.20;24.33;;;5.90;94.30;;;;;;5041240;28;20237;-69
2022/01/28 09:43:19;;;;;;;50.87;25.57;;;5.90;94.20;;;;;;5047150;28;20280;-69
2022/01/28 09:45:47;;;;;;;53.17;27.00;;;5.90;94.10;;;;;;5043510;28;20251;-68
2022/01/28 09:48:18;;;;;;;49.07;24.73;;;6.00;94.10;;;;;;5058849;28;20262;-68
2022/01/28 09:50:46;;;;;;;46.47;25.53;;;6.00;94.00;;;;;;5040344;28;20206;-68
2022/01/28 09:53:14;;;;;;;58.20;26.53;;;6.10;94.00;;;;;;5036875;28;20234;-68
2022/01/28 09:55:45;;;;;;;56.73;25.77;;;6.10;93.90;;;;;;5050666;28;20201;-68
2022/01/28 09:58:12;;;;;;;51.83;24.73;;;6.20;93.80;;;;;;5040525;28;20263;-68
2022/01/28 10:00:40;;;;;;;57.23;26.73;;;6.30;93.70;;;;;;5044550;28;20201;-68
2022/01/28 10:03:09;;;;;;;48.97;26.07;;;6.30;93.70;;;;;;5041603;28;20279;-68
2022/01/28 10:05:37;;;;;;;54.70;27.40;;;6.40;93.80;;;;;;5038364;28;20349;-68
2022/01/28 10:08:13;;;;;;;51.30;25.00;;;6.60;93.70;;;;;;5040027;28;20205;-68
2022/01/28 10:10:53;;;;;;;46.67;26.83;;;6.70;93.70;;;;;;5053832;28;20204;-69
2022/01/28 10:13:38;;;;;;;60.43;29.67;;;6.80;93.40;;;;;;5055880;28;20694;-68
2022/01/28 10:16:19;;;;;;;63.23;27.77;;;6.80;93.10;;;;;;5046229;28;20193;-69
2022/01/28 10:18:49;;;;;;;58.27;30.23;;;6.80;92.70;;;;;;5047550;28;20225;-68
2022/01/28 10:21:22;;;;;;;65.30;29.83;;;6.80;92.60;;;;;;5053547;28;20558;-70
2022/01/28 10:23:58;;;;;;;60.43;28.73;;;6.70;92.60;;;;;;5049494;28;20537;-69
2022/01/28 10:26:28;;;;;;;61.73;29.27;;;6.70;92.50;;;;;;5046358;28;20201;-69
2022/01/28 10:28:56;;;;;;;69.77;29.53;;;6.60;92.40;;;;;;5048616;28;20208;-68
2022/01/28 10:31:41;;;;;;;63.13;31.07;;;6.50;92.40;;;;;;5042912;28;20549;-68
2022/01/28 10:34:12;;;;;;;57.63;29.07;;;6.50;92.50;;;;;;5050791;28;20220;-68
2022/01/28 10:36:42;;;;;;;62.73;29.20;;;6.50;92.60;;;;;;5052736;28;20213;-68
2022/01/28 10:39:17;;;;;;;58.17;28.73;;;6.40;92.60;;;;;;5043248;28;20286;-68
2022/01/28 10:42:02;;;;;;;62.07;28.67;;;6.40;92.70;;;;;;5049409;28;20263;-69
2022/01/28 10:44:31;;;;;;;62.77;28.23;;;6.40;92.80;;;;;;5027946;28;20654;-68
2022/01/28 10:47:01;;;;;;;63.53;28.90;;;6.40;92.80;;;;;;5047574;28;20263;-68
2022/01/28 10:49:31;;;;;;;58.80;27.83;;;6.40;92.90;;;;;;5043233;28;20199;-68
2022/01/28 10:52:05;;;;;;;55.13;27.43;;;6.40;93.00;;;;;;5055650;28;20215;-68
2022/01/28 10:54:32;;;;;;;58.73;27.43;;;6.40;93.00;;;;;;5048739;28;20209;-68
2022/01/28 10:57:01;;;;;;;52.63;27.47;;;6.50;93.00;;;;;;5043431;28;20220;-68
2022/01/28 10:59:37;;;;;;;54.20;27.43;;;6.50;93.00;;;;;;5065280;28;20217;-68
2022/01/28 11:02:05;;;;;;;59.20;27.70;;;6.50;92.90;;;;;;5039875;28;20233;-68
2022/01/28 11:04:33;;;;;;;57.90;27.57;;;6.50;92.70;;;;;;5041892;28;20216;-68
2022/01/28 11:07:02;;;;;;;50.17;24.93;;;6.60;92.60;;;;;;5042702;28;20205;-68
2022/01/28 11:09:30;;;;;;;56.10;27.30;;;6.60;92.60;;;;;;5051847;28;20545;-69
2022/01/28 11:11:58;;;;;;;56.07;27.50;;;6.60;92.60;;;;;;5043679;28;20210;-68
2022/01/28 11:14:25;;;;;;;50.63;27.53;;;6.60;92.50;;;;;;5030453;28;20231;-69
2022/01/28 11:16:52;;;;;;;49.83;26.47;;;6.70;92.50;;;;;;5036861;28;20228;-69
2022/01/28 11:19:22;;;;;;;49.10;25.63;;;6.70;92.40;;;;;;5045833;28;20640;-69
2022/01/28 11:22:10;;;;;;;49.43;24.90;;;6.70;92.30;;;;;;5050525;28;20201;-69
2022/01/28 11:25:15;;;;;;;49.77;26.33;;;6.80;92.40;;;;;;5048920;28;20198;-69
2022/01/28 11:27:46;;;;;;;58.67;26.07;;;6.80;92.30;;;;;;5041766;28;20220;-68
2022/01/28 11:30:25;;;;;;;50.83;25.37;;;6.80;92.10;;;;;;5051880;28;20223;-69
2022/01/28 11:32:59;;;;;;;54.07;27.37;;;6.90;92.00;;;;;;5050006;28;20213;-69
2022/01/28 11:35:33;;;;;;;48.43;27.33;;;6.80;91.80;;;;;;5047336;28;20300;-68
2022/01/28 11:38:04;;;;;;;54.60;27.57;;;6.80;91.80;;;;;;5048506;28;20303;-69
2022/01/28 11:40:49;;;;;;;61.27;29.00;;;6.90;91.80;;;;;;5046591;28;20232;-69
2022/01/28 11:43:25;;;;;;;58.07;28.80;;;6.90;91.80;;;;;;5046782;28;20215;-69
2022/01/28 11:46:11;;;;;;;54.00;28.70;;;6.90;91.80;;;;;;5044281;28;20292;-69
2022/01/28 11:49:02;;;;;;;54.67;27.77;;;6.90;91.80;;;;;;5045126;28;20200;-68
2022/01/28 11:51:35;;;;;;;51.53;27.70;;;7.00;91.70;;;;;;5044925;28;20735;-68
2022/01/28 11:54:05;;;;;;;52.37;26.33;;;7.00;91.70;;;;;;5046914;28;20210;-68
2022/01/28 11:56:36;;;;;;;54.00;27.10;;;7.00;91.70;;;;;;5053343;28;20206;-68
2022/01/28 11:59:09;;;;;;;52.10;27.20;;;7.00;91.70;;;;;;5045689;28;20226;-68
2022/01/28 12:01:39;;;;;;;50.83;27.50;;;7.00;91.70;;;;;;5039809;28;20210;-68
2022/01/28 12:04:25;;;;;;;44.07;26.17;;;7.10;91.70;;;;;;5038306;28;20218;-68
2022/01/28 12:07:00;;;;;;;50.20;26.13;;;7.10;91.60;;;;;;5040328;28;20221;-68
2022/01/28 12:09:29;;;;;;;49.13;26.43;;;7.10;91.60;;;;;;5047404;28;20299;-68
2022/01/28 12:12:00;;;;;;;49.20;25.20;;;7.20;91.70;;;;;;5042542;28;20220;-69
2022/01/28 12:17:40;;;;;;;46.37;25.13;;;7.30;91.40;;;;;;5038687;28;20269;-68
2022/01/28 12:20:47;;;;;;;47.33;25.20;;;7.30;91.10;;;;;;5051465;28;20249;-68
2022/01/28 12:23:25;;;;;;;42.33;25.07;;;7.30;91.00;;;;;;5053732;28;20205;-68
2022/01/28 12:25:57;;;;;;;44.07;25.73;;;7.20;90.90;;;;;;5038738;28;20201;-68
2022/01/28 12:28:33;;;;;;;44.57;23.87;;;7.20;90.90;;;;;;5044482;28;20552;-69
2022/01/28 12:31:00;;;;;;;49.00;28.13;;;7.30;90.80;;;;;;5028182;28;20304;-68
2022/01/28 12:33:33;;;;;;;55.33;27.17;;;7.20;90.60;;;;;;5043295;28;20225;-69
2022/01/28 12:36:11;;;;;;;49.43;26.07;;;7.30;91.10;;;;;;5049777;28;20256;-68
2022/01/28 12:38:44;;;;;;;53.93;28.07;;;7.30;90.60;;;;;;5035833;28;20291;-68
2022/01/28 12:41:15;;;;;;;41.70;27.80;;;7.30;90.60;;;;;;5041841;28;20236;-68
2022/01/28 12:43:42;;;;;;;50.87;29.17;;;7.30;91.00;;;;;;5044705;28;20201;-69
2022/01/28 12:46:12;;;;;;;52.73;28.90;;;7.30;90.80;;;;;;5051279;28;20313;-69
2022/01/28 12:48:48;;;;;;;52.80;28.40;;;7.40;90.80;;;;;;5037935;28;20301;-69
2022/01/28 12:51:16;;;;;;;48.83;26.50;;;7.30;90.40;;;;;;5037327;28;20644;-69
2022/01/28 12:53:45;;;;;;;56.83;29.80;;;7.30;90.60;;;;;;5050605;28;20217;-69
2022/01/28 12:56:16;;;;;;;64.40;32.87;;;7.20;90.60;;;;;;5042292;28;20209;-69
2022/01/28 12:58:51;;;;;;;58.40;29.43;;;7.20;91.00;;;;;;5023826;28;20313;-69
2022/01/28 13:01:20;;;;;;;51.93;28.40;;;7.30;90.90;;;;;;5038801;28;20308;-69
2022/01/28 13:06:40;;;;;;;58.77;30.77;;;7.40;91.20;;;;;;5039868;28;20252;-69
2022/01/28 13:09:15;;;;;;;62.67;31.70;;;7.50;90.70;;;;;;5047325;28;20212;-69
2022/01/28 13:11:45;;;;;;;57.83;30.20;;;7.60;90.40;;;;;;5029915;28;20212;-69
2022/01/28 13:14:14;;;;;;;61.00;31.43;;;7.60;90.60;;;;;;5053317;28;20197;-69
2022/01/28 13:16:44;;;;;;;59.63;31.13;;;7.70;90.80;;;;;;5040083;28;20210;-69
2022/01/28 13:19:12;;;;;;;51.20;28.83;;;7.70;90.70;;;;;;5051103;28;20206;-69
2022/01/28 13:21:42;;;;;;;53.83;29.43;;;7.70;90.70;;;;;;5041139;28;20321;-69
2022/01/28 13:24:15;;;;;;;48.10;28.07;;;7.70;90.80;;;;;;5052165;28;20213;-69
2022/01/28 13:27:08;;;;;;;51.10;28.03;;;7.70;91.10;;;;;;5047695;28;20288;-69
2022/01/28 13:29:35;;;;;;;48.17;26.60;;;7.80;90.70;;;;;;5048367;28;20210;-69
2022/01/28 13:32:14;;;;;;;49.00;29.60;;;7.80;90.40;;;;;;5050204;28;20621;-69
2022/01/28 13:34:56;;;;;;;51.77;28.00;;;7.80;90.50;;;;;;5027719;28;20252;-69
2022/01/28 13:37:39;;;;;;;54.47;28.40;;;7.80;90.80;;;;;;5050300;28;20274;-69
2022/01/28 13:40:13;;;;;;;60.57;31.70;;;7.90;90.40;;;;;;5051145;28;20665;-68
2022/01/28 13:43:14;;;;;;;60.13;31.93;;;7.90;90.30;;;;;;5050662;28;20211;-68
2022/01/28 13:46:04;;;;;;;65.43;33.53;;;7.80;90.50;;;;;;5038740;28;20199;-68
2022/01/28 13:48:34;;;;;;;69.33;35.23;;;7.80;90.70;;;;;;5052015;28;20218;-69
2022/01/28 13:51:16;;;;;;;71.90;36.60;;;7.80;90.90;;;;;;5050941;28;20296;-69
2022/01/28 13:56:31;;;;;;;69.40;36.97;;;7.80;90.70;;;;;;5040826;28;20537;-68
2022/01/28 13:58:59;;;;;;;68.37;35.53;;;7.80;90.90;;;;;;5052212;28;20202;-68
2022/01/28 14:01:28;;;;;;;67.93;34.90;;;7.70;90.80;;;;;;5043887;28;20213;-69
2022/01/28 14:04:00;;;;;;;59.73;31.57;;;7.60;91.00;;;;;;5051879;28;20241;-68
2022/01/28 14:06:32;;;;;;;57.93;32.10;;;7.60;91.10;;;;;;5041739;28;20205;-68
2022/01/28 14:09:07;;;;;;;61.07;31.97;;;7.50;91.40;;;;;;5049079;28;20303;-68
2022/01/28 14:11:40;;;;;;;66.27;33.53;;;7.50;91.50;;;;;;5051817;28;20304;-68
2022/01/28 14:14:14;;;;;;;64.53;33.97;;;7.40;91.40;;;;;;5049434;28;20209;-68
2022/01/28 14:16:50;;;;;;;71.40;36.83;;;7.30;91.40;;;;;;5045689;28;20210;-68
2022/01/28 14:19:17;;;;;;;70.57;35.20;;;7.30;91.60;;;;;;5049909;28;20210;-68
2022/01/28 14:21:46;;;;;;;76.97;39.17;;;7.20;91.50;;;;;;5036567;28;20245;-68
2022/01/28 14:24:16;;;;;;;80.10;38.97;;;7.20;91.90;;;;;;5035673;28;20202;-68
2022/01/28 14:26:44;;;;;;;84.33;40.03;;;7.30;92.00;;;;;;5051497;28;20204;-68
2022/01/28 14:31:48;;;;;;;68.73;36.00;;;7.30;92.00;;;;;;5044043;28;20209;-68
2022/01/28 14:34:15;;;;;;;71.47;37.23;;;7.20;91.80;;;;;;5044756;28;20257;-68